Time;durP1;ratioP1;P1;durP2;ratioP2;P2;SDS_P1;SDS_P2;PMS_P1;PMS_P2;Temp;Humidity;BMP_temperature;BMP_pressure;BME280_temperature;BME280_humidity;BME280_pressure;Samples;Min_cycle;Max_cycle;Signal;HPM_P1;HPM_P2
2021/10/01 00:02:21;;;;;;;1.83;1.03;;;;;;;10.83;73.20;101478.28;5074239;28;20263;-77
2021/10/01 00:04:48;;;;;;;0.73;0.70;;;;;;;10.78;74.12;101465.22;5067439;28;20248;-76
2021/10/01 00:07:15;;;;;;;1.97;1.10;;;;;;;10.74;73.09;101484.38;5073617;28;20716;-77
2021/10/01 00:09:41;;;;;;;1.57;1.23;;;;;;;10.71;73.34;101473.94;5073611;28;20852;-77
2021/10/01 00:12:09;;;;;;;2.20;0.83;;;;;;;10.71;73.75;101451.31;5074110;28;20205;-78
2021/10/01 00:14:38;;;;;;;1.27;0.77;;;;;;;10.70;73.31;101456.53;5073910;28;20246;-77
2021/10/01 00:17:05;;;;;;;2.93;0.90;;;;;;;10.68;73.21;101480.06;5073128;28;20276;-77
2021/10/01 00:19:33;;;;;;;1.67;0.90;;;;;;;10.69;73.17;101457.41;5073363;28;20227;-77
2021/10/01 00:22:02;;;;;;;1.97;1.00;;;;;;;10.54;72.33;101479.19;5073923;28;20205;-77
2021/10/01 00:24:29;;;;;;;2.40;0.90;;;;;;;10.50;71.88;101517.53;5073569;28;20213;-78
2021/10/01 00:26:55;;;;;;;1.87;0.90;;;;;;;10.56;72.29;101490.50;5073617;28;20278;-77
2021/10/01 00:29:21;;;;;;;1.80;1.00;;;;;;;10.60;72.07;101507.03;5073340;28;20254;-77
2021/10/01 00:31:49;;;;;;;2.37;1.00;;;;;;;10.60;72.04;101489.63;5073295;28;20201;-77
2021/10/01 00:34:15;;;;;;;2.40;1.30;;;;;;;10.61;71.98;101493.13;5067122;28;20219;-76
2021/10/01 00:36:42;;;;;;;2.90;1.00;;;;;;;10.58;71.74;101474.84;5073417;28;20220;-77
2021/10/01 00:39:09;;;;;;;2.80;0.90;;;;;;;10.58;71.41;101517.47;5073178;28;20208;-76
2021/10/01 00:41:36;;;;;;;2.57;1.23;;;;;;;10.59;72.34;101481.81;5073457;28;20199;-76
2021/10/01 00:44:04;;;;;;;3.03;1.20;;;;;;;10.60;72.68;101455.69;5073255;28;20670;-76
2021/10/01 00:46:30;;;;;;;1.60;1.07;;;;;;;10.62;72.98;101443.50;5073169;28;20680;-77
2021/10/01 00:48:58;;;;;;;2.03;1.07;;;;;;;10.64;72.84;101439.13;5072832;28;20615;-77
2021/10/01 00:51:26;;;;;;;2.20;1.20;;;;;;;10.64;71.41;101490.50;5072884;28;20941;-77
2021/10/01 00:53:54;;;;;;;2.80;1.10;;;;;;;10.67;72.18;101477.44;5073015;28;20631;-77
2021/10/01 00:56:21;;;;;;;1.40;0.93;;;;;;;10.68;72.23;101464.41;5072968;28;20780;-77
2021/10/01 00:58:47;;;;;;;1.73;1.10;;;;;;;10.66;72.40;101470.47;5072627;28;20205;-77
2021/10/01 01:01:14;;;;;;;1.77;1.10;;;;;;;10.66;71.89;101491.34;5073110;28;20203;-77
2021/10/01 01:03:44;;;;;;;1.43;0.90;;;;;;;10.70;71.43;101498.31;5067696;28;20217;-76
2021/10/01 01:06:27;;;;;;;3.63;1.20;;;;;;;10.72;71.49;101512.22;5063879;28;20213;-75
2021/10/01 01:09:02;;;;;;;2.37;1.07;;;;;;;10.74;72.03;101481.75;5071426;28;20735;-76
2021/10/01 01:11:38;;;;;;;0.90;0.90;;;;;;;10.76;72.16;101466.94;5073100;28;20210;-77
2021/10/01 01:14:11;;;;;;;2.13;1.00;;;;;;;10.75;72.03;101485.25;5072607;28;20640;-77
2021/10/01 01:16:39;;;;;;;0.90;0.90;;;;;;;10.75;72.77;101435.66;5072263;28;20285;-76
2021/10/01 01:19:13;;;;;;;1.67;0.83;;;;;;;10.73;72.62;101435.66;5072247;28;20205;-77
2021/10/01 01:21:59;;;;;;;1.97;1.00;;;;;;;10.69;73.06;101426.94;5072854;28;20209;-77
2021/10/01 01:25:05;;;;;;;2.27;1.10;;;;;;;10.67;73.43;101402.59;5072693;28;20262;-78
2021/10/01 01:27:46;;;;;;;1.20;0.90;;;;;;;10.68;74.49;101369.50;4997106;28;20235;-77
2021/10/01 01:30:16;;;;;;;2.20;1.40;;;;;;;10.69;74.29;101361.66;5072326;28;20205;-77
2021/10/01 01:32:47;;;;;;;1.53;0.90;;;;;;;10.61;73.47;101386.94;5072346;28;20209;-77
2021/10/01 01:35:17;;;;;;;1.40;1.00;;;;;;;10.61;75.40;101342.56;5065952;28;20297;-77
2021/10/01 01:37:47;;;;;;;2.13;1.17;;;;;;;10.63;75.13;101337.34;5071827;28;20423;-76
2021/10/01 01:40:17;;;;;;;1.57;1.20;;;;;;;10.64;75.26;101324.25;5072436;28;20209;-77
2021/10/01 01:42:45;;;;;;;3.20;0.90;;;;;;;10.64;75.71;101302.50;5072128;28;20723;-76
2021/10/01 01:45:13;;;;;;;3.83;1.30;;;;;;;10.67;75.66;101297.28;5072301;28;20197;-77
2021/10/01 01:47:41;;;;;;;2.27;1.00;;;;;;;10.66;74.96;101313.81;5072035;28;20229;-77
2021/10/01 01:50:10;;;;;;;2.90;1.20;;;;;;;10.64;74.54;101311.19;5071554;28;20204;-77
2021/10/01 01:52:39;;;;;;;2.57;0.80;;;;;;;10.59;75.13;101319.97;5071995;28;20213;-77
2021/10/01 01:55:07;;;;;;;1.03;0.90;;;;;;;10.58;75.06;101300.78;5072088;28;20221;-77
2021/10/01 01:57:34;;;;;;;2.30;0.90;;;;;;;10.60;75.78;101282.50;5071931;28;20229;-77
2021/10/01 02:00:02;;;;;;;1.43;1.07;;;;;;;10.54;74.50;101319.94;5071572;28;20744;-76
2021/10/01 02:02:29;;;;;;;5.27;1.10;;;;;;;10.45;73.81;101356.56;5071658;28;20206;-77
2021/10/01 02:04:56;;;;;;;1.30;1.17;;;;;;;10.53;75.00;101318.22;5065260;28;20614;-77
2021/10/01 02:07:25;;;;;;;2.17;1.00;;;;;;;10.58;75.37;101279.03;5071798;28;20221;-76
2021/10/01 02:09:53;;;;;;;2.07;1.80;;;;;;;10.51;75.40;101273.84;5071689;28;20234;-77
2021/10/01 02:12:20;;;;;;;3.33;1.90;;;;;;;10.52;75.64;101272.09;5071704;28;20208;-78
2021/10/01 02:14:49;;;;;;;1.87;0.80;;;;;;;10.49;74.67;101274.75;5071638;28;20229;-77
2021/10/01 02:17:18;;;;;;;1.20;0.90;;;;;;;10.36;75.59;101260.88;5071220;28;20274;-77
2021/10/01 02:19:47;;;;;;;2.03;1.10;;;;;;;10.39;75.22;101258.25;5070927;28;20206;-77
2021/10/01 02:22:16;;;;;;;2.13;1.00;;;;;;;10.36;75.44;101260.03;5071794;28;20254;-77
2021/10/01 02:24:44;;;;;;;2.50;1.30;;;;;;;10.36;74.09;101292.19;5071601;28;20204;-77
2021/10/01 02:27:15;;;;;;;1.40;0.90;;;;;;;10.38;75.42;101272.19;5071373;28;20240;-74
2021/10/01 02:29:47;;;;;;;1.97;0.90;;;;;;;10.42;74.87;101284.34;5071216;28;20223;-78
2021/10/01 02:32:23;;;;;;;1.17;0.87;;;;;;;10.45;74.44;101293.91;5071793;28;20209;-77
2021/10/01 02:34:50;;;;;;;1.10;1.00;;;;;;;10.41;74.94;101271.31;5063879;28;20224;-77
2021/10/01 02:37:18;;;;;;;2.30;1.00;;;;;;;10.48;74.73;101255.59;5071419;28;20608;-77
2021/10/01 02:39:50;;;;;;;1.90;1.10;;;;;;;10.51;73.87;101294.75;5071244;28;20206;-77
2021/10/01 02:42:18;;;;;;;1.97;0.90;;;;;;;10.54;74.16;101288.63;5071512;28;20214;-77
2021/10/01 02:44:47;;;;;;;2.93;1.07;;;;;;;10.51;73.03;101318.22;5071439;28;20736;-77
2021/10/01 02:47:14;;;;;;;1.33;0.80;;;;;;;10.50;73.55;101305.19;5071200;28;20768;-77
2021/10/01 02:49:41;;;;;;;2.37;0.90;;;;;;;10.49;74.86;101277.38;5070937;28;20205;-77
2021/10/01 02:52:12;;;;;;;1.17;0.80;;;;;;;10.46;74.43;101277.38;5071424;28;20205;-77
2021/10/01 02:54:46;;;;;;;4.27;1.30;;;;;;;10.47;75.26;101261.69;5065796;28;20235;-76
2021/10/01 02:57:18;;;;;;;2.10;1.20;;;;;;;10.46;74.34;101253.88;5062954;28;20272;-77
2021/10/01 02:59:46;;;;;;;1.17;1.00;;;;;;;10.43;75.82;101227.81;5061938;28;20202;-73
2021/10/01 03:02:14;;;;;;;1.40;1.10;;;;;;;10.45;75.32;101213.00;5063230;28;20198;-77
2021/10/01 03:04:44;;;;;;;1.60;1.00;;;;;;;10.40;75.33;101228.66;5071317;28;20201;-77
2021/10/01 03:07:11;;;;;;;3.17;1.40;;;;;;;10.32;75.79;101215.66;5070979;28;20225;-75
2021/10/01 03:09:38;;;;;;;2.33;1.20;;;;;;;10.34;75.82;101205.22;5070812;28;20205;-77
2021/10/01 03:12:07;;;;;;;2.80;0.90;;;;;;;10.30;75.02;101229.59;5071424;28;20204;-77
2021/10/01 03:14:36;;;;;;;1.10;1.00;;;;;;;10.31;74.65;101252.22;5070783;28;20212;-77
2021/10/01 03:17:03;;;;;;;1.47;1.10;;;;;;;10.19;76.15;101207.88;5070406;28;20277;-77
2021/10/01 03:19:31;;;;;;;1.83;0.90;;;;;;;10.24;76.39;101180.88;5070738;28;20676;-76
2021/10/01 03:21:58;;;;;;;2.60;1.23;;;;;;;10.21;75.45;101209.63;5070630;28;20210;-76
2021/10/01 03:24:25;;;;;;;1.67;1.03;;;;;;;10.23;75.44;101212.22;5071015;28;20200;-77
2021/10/01 03:26:52;;;;;;;2.07;0.80;;;;;;;10.23;75.38;101205.25;5070917;28;20224;-76
2021/10/01 03:29:19;;;;;;;2.60;1.30;;;;;;;10.25;75.70;101208.72;5065944;28;20231;-77
2021/10/01 03:31:49;;;;;;;1.90;1.00;;;;;;;10.24;75.47;101216.56;5069062;28;20866;-77
2021/10/01 03:34:16;;;;;;;1.00;0.83;;;;;;;10.21;75.38;101217.44;5054620;28;20674;-77
2021/10/01 03:36:44;;;;;;;2.60;1.27;;;;;;;10.23;73.71;101252.22;5054507;28;20235;-77
2021/10/01 03:39:11;;;;;;;3.17;1.63;;;;;;;10.17;74.92;101244.41;5054266;28;20203;-76
2021/10/01 03:41:38;;;;;;;2.77;1.33;;;;;;;10.21;75.76;101209.63;5054621;28;20210;-77
2021/10/01 03:44:05;;;;;;;4.70;0.80;;;;;;;10.24;74.93;101237.41;5054023;28;20760;-76
2021/10/01 03:46:31;;;;;;;1.40;1.00;;;;;;;10.18;74.27;101255.72;5054510;28;20220;-77
2021/10/01 03:48:59;;;;;;;2.97;1.10;;;;;;;10.17;74.69;101249.63;5054009;28;20233;-76
2021/10/01 03:51:25;;;;;;;3.93;1.30;;;;;;;10.13;74.33;101248.78;5054399;28;20263;-77
2021/10/01 03:53:53;;;;;;;1.67;1.00;;;;;;;10.10;74.56;101246.16;5054387;28;20204;-76
2021/10/01 03:56:20;;;;;;;2.40;1.00;;;;;;;10.10;74.38;101248.78;5054017;28;20238;-77
2021/10/01 03:58:48;;;;;;;2.63;0.90;;;;;;;10.10;74.99;101225.31;5053721;28;20206;-77
2021/10/01 04:01:15;;;;;;;5.97;1.33;;;;;;;10.11;74.38;101229.66;5065973;28;20198;-76
2021/10/01 04:03:42;;;;;;;1.67;0.83;;;;;;;10.01;74.52;101230.56;5074250;28;20220;-78
2021/10/01 04:06:10;;;;;;;1.27;0.87;;;;;;;9.86;74.15;101241.06;5074042;28;20223;-77
2021/10/01 04:08:36;;;;;;;2.90;0.87;;;;;;;9.92;74.46;101218.41;5073708;28;20205;-77
2021/10/01 04:11:03;;;;;;;1.63;0.90;;;;;;;9.92;73.57;101262.75;5073901;28;20206;-77
2021/10/01 04:13:29;;;;;;;3.60;1.07;;;;;;;9.98;73.33;101267.09;5074112;28;20205;-77
2021/10/01 04:15:56;;;;;;;1.50;0.90;;;;;;;10.03;73.55;101264.44;5072913;28;20277;-76
2021/10/01 04:18:23;;;;;;;1.30;1.07;;;;;;;10.04;72.41;101290.53;5073494;28;20917;-77
2021/10/01 04:20:49;;;;;;;1.47;0.70;;;;;;;10.03;72.76;101291.44;5073818;28;20259;-77
2021/10/01 04:23:17;;;;;;;1.33;1.13;;;;;;;10.06;72.84;101270.53;5073658;28;20623;-77
2021/10/01 04:25:43;;;;;;;1.90;1.10;;;;;;;10.04;72.33;101300.97;5073758;28;20252;-76
2021/10/01 04:28:10;;;;;;;1.63;1.00;;;;;;;10.03;71.93;101311.41;5073087;28;20754;-75
2021/10/01 04:30:42;;;;;;;2.13;1.00;;;;;;;10.09;72.28;101317.50;5065295;28;20270;-76
2021/10/01 04:33:14;;;;;;;5.20;1.20;;;;;;;10.06;71.93;101314.00;5074688;28;20202;-76
2021/10/01 04:35:40;;;;;;;2.80;0.87;;;;;;;10.02;72.03;101318.38;5073187;28;20320;-77
2021/10/01 04:38:06;;;;;;;2.13;0.87;;;;;;;10.01;72.01;101313.16;5073108;28;20210;-77
2021/10/01 04:40:34;;;;;;;2.80;0.93;;;;;;;10.02;72.20;101312.28;5073570;28;20261;-77
2021/10/01 04:43:01;;;;;;;2.40;0.97;;;;;;;10.03;72.21;101304.47;5073209;28;20270;-77
2021/10/01 04:45:27;;;;;;;1.80;0.87;;;;;;;10.04;72.67;101297.50;5073160;28;20259;-77
2021/10/01 04:47:53;;;;;;;2.40;0.97;;;;;;;9.94;72.50;101294.06;5072958;28;20208;-77
2021/10/01 04:50:20;;;;;;;1.40;0.83;;;;;;;9.96;72.43;101289.69;5072979;28;20566;-77
2021/10/01 04:52:46;;;;;;;2.37;1.03;;;;;;;9.98;72.85;101280.13;5073370;28;20205;-77
2021/10/01 04:55:13;;;;;;;3.03;0.90;;;;;;;9.97;72.29;101293.16;5073088;28;20252;-76
2021/10/01 04:57:40;;;;;;;2.20;1.00;;;;;;;9.93;72.91;101274.94;5073008;28;20226;-76
2021/10/01 05:00:08;;;;;;;1.97;1.00;;;;;;;9.96;73.25;101258.41;5064350;28;20205;-77
2021/10/01 05:02:34;;;;;;;6.80;1.43;;;;;;;10.00;72.55;101277.53;5072898;28;20203;-77
2021/10/01 05:05:00;;;;;;;1.47;0.80;;;;;;;9.99;72.39;101279.28;5072615;28;20221;-77
2021/10/01 05:07:27;;;;;;;1.87;1.20;;;;;;;9.96;73.29;101281.00;5072956;28;20288;-77
2021/10/01 05:09:53;;;;;;;2.80;1.33;;;;;;;9.85;72.95;101278.41;5072656;28;20209;-76
2021/10/01 05:12:19;;;;;;;1.30;1.10;;;;;;;9.88;73.04;101271.47;5072670;28;20326;-77
2021/10/01 05:14:47;;;;;;;1.53;0.90;;;;;;;9.93;72.46;101281.91;5072392;28;20200;-76
2021/10/01 05:17:13;;;;;;;1.30;0.70;;;;;;;9.90;72.09;101298.41;5072215;28;20230;-76
2021/10/01 05:19:40;;;;;;;1.73;0.90;;;;;;;9.90;72.52;101280.16;5072335;28;20200;-77
2021/10/01 05:22:06;;;;;;;2.57;1.00;;;;;;;9.92;72.24;101293.19;5072743;28;20208;-76
2021/10/01 05:24:34;;;;;;;1.43;0.90;;;;;;;9.94;72.18;101297.50;5072607;28;20207;-76
2021/10/01 05:27:00;;;;;;;1.97;0.80;;;;;;;9.93;71.93;101303.63;5072256;28;20229;-77
2021/10/01 05:29:27;;;;;;;1.63;0.87;;;;;;;9.91;72.19;101309.69;5066261;28;20214;-77
2021/10/01 05:31:56;;;;;;;1.60;0.80;;;;;;;9.94;72.42;101301.88;5069964;28;20250;-77
2021/10/01 05:34:22;;;;;;;2.87;0.77;;;;;;;9.96;71.86;101321.00;5071887;28;20228;-77
2021/10/01 05:36:49;;;;;;;2.50;0.90;;;;;;;9.98;72.53;101300.13;5060701;28;20225;-77
2021/10/01 05:39:15;;;;;;;1.90;0.83;;;;;;;9.98;72.98;101292.31;5061800;28;20198;-77
2021/10/01 05:41:42;;;;;;;2.93;1.53;;;;;;;9.92;71.99;101311.44;5062201;28;20200;-77
2021/10/01 05:44:09;;;;;;;1.97;1.10;;;;;;;9.94;73.22;101281.88;5060757;28;20707;-79
2021/10/01 05:46:39;;;;;;;1.77;0.97;;;;;;;9.99;72.69;101286.19;5061975;28;20217;-80
2021/10/01 05:49:09;;;;;;;1.90;0.83;;;;;;;9.93;71.68;101316.66;5064284;28;20201;-80
2021/10/01 05:51:40;;;;;;;1.60;0.73;;;;;;;9.99;71.79;101322.72;5064034;28;20219;-80
2021/10/01 05:54:14;;;;;;;1.90;1.10;;;;;;;10.06;72.80;101293.16;5064148;28;20256;-80
2021/10/01 05:56:41;;;;;;;0.70;0.60;;;;;;;10.06;71.46;101307.06;5062948;28;20261;-80
2021/10/01 05:59:07;;;;;;;2.37;1.00;;;;;;;10.12;71.39;101324.44;5062169;28;20548;-79
2021/10/01 06:01:35;;;;;;;2.47;0.90;;;;;;;10.18;71.75;101324.41;5065507;28;20251;-79
2021/10/01 06:04:01;;;;;;;2.10;0.90;;;;;;;10.16;72.12;101300.06;5064046;28;20553;-79
2021/10/01 06:06:29;;;;;;;2.83;0.90;;;;;;;10.10;71.51;101319.22;5063259;28;20209;-78
2021/10/01 06:08:55;;;;;;;1.27;0.90;;;;;;;10.18;71.85;101320.94;5061707;28;20260;-78
2021/10/01 06:11:22;;;;;;;3.13;0.90;;;;;;;10.17;71.43;101317.47;5063033;28;20200;-80
2021/10/01 06:13:48;;;;;;;3.17;0.80;;;;;;;10.17;70.73;101345.28;5063601;28;20197;-78
2021/10/01 06:16:14;;;;;;;1.90;0.80;;;;;;;10.22;71.03;101348.75;5061620;28;20228;-79
2021/10/01 06:18:41;;;;;;;2.67;0.80;;;;;;;10.27;71.31;101345.28;5065019;28;20200;-81
2021/10/01 06:21:07;;;;;;;1.97;1.00;;;;;;;10.39;70.62;101367.88;5062160;28;20239;-77
2021/10/01 06:23:35;;;;;;;2.20;0.87;;;;;;;10.37;70.25;101400.09;5062794;28;20201;-79
2021/10/01 06:26:01;;;;;;;2.13;0.93;;;;;;;10.39;69.68;101395.72;5062403;28;20216;-79
2021/10/01 06:28:28;;;;;;;0.87;0.83;;;;;;;10.48;70.72;101360.00;5062629;28;20211;-81
2021/10/01 06:30:55;;;;;;;1.17;0.80;;;;;;;10.49;70.22;101379.16;5062440;28;20201;-82
2021/10/01 06:33:22;;;;;;;1.27;0.80;;;;;;;10.57;71.67;101335.63;5068647;28;20199;-81
2021/10/01 06:35:48;;;;;;;2.43;1.17;;;;;;;10.57;72.11;101312.13;5064322;28;20236;-79
2021/10/01 06:38:14;;;;;;;1.27;0.60;;;;;;;10.58;72.18;101292.09;5062302;28;20198;-78
2021/10/01 06:40:42;;;;;;;3.13;0.63;;;;;;;10.58;72.47;101279.91;5061256;28;20277;-77
2021/10/01 06:43:10;;;;;;;1.97;0.80;;;;;;;10.62;72.28;101286.84;5061378;28;20221;-77
2021/10/01 06:45:39;;;;;;;1.53;0.80;;;;;;;10.57;71.92;101312.13;5062042;28;20192;-79
2021/10/01 06:48:17;;;;;;;2.47;0.80;;;;;;;10.60;72.49;101291.19;5062827;28;20209;-79
2021/10/01 06:51:18;;;;;;;3.00;0.90;;;;;;;10.56;74.14;101239.03;5063562;28;20230;-80
2021/10/01 08:19:21;;;;;;;2.07;0.93;;;;;;;12.26;66.75;101451.22;5063477;28;20290;-80
2021/10/01 08:21:47;;;;;;;2.93;0.60;;;;;;;12.32;67.13;101436.31;5067503;28;20263;-81
2021/10/01 08:24:15;;;;;;;2.13;0.73;;;;;;;12.37;66.08;101472.06;5066999;28;20207;-82
2021/10/01 08:26:43;;;;;;;1.13;0.67;;;;;;;12.27;65.31;101494.88;5066452;28;20570;-81
2021/10/01 08:29:09;;;;;;;4.00;1.00;;;;;;;12.34;66.69;101461.63;5067853;28;20215;-79
2021/10/01 08:31:37;;;;;;;2.83;0.93;;;;;;;12.42;65.53;101473.75;5066767;28;20221;-80
2021/10/01 08:34:03;;;;;;;2.00;0.70;;;;;;;12.52;65.41;101479.78;5067214;28;20256;-80
2021/10/01 08:36:31;;;;;;;1.80;1.00;;;;;;;12.60;65.56;101482.31;5067965;28;20646;-81
2021/10/01 08:38:57;;;;;;;1.87;0.70;;;;;;;12.60;64.61;101517.22;5066945;28;20203;-81
2021/10/01 08:41:23;;;;;;;2.43;0.90;;;;;;;12.68;63.70;101544.22;5063998;28;20262;-80
2021/10/01 08:43:50;;;;;;;1.50;0.77;;;;;;;12.78;64.69;101489.09;5065185;28;20262;-81
2021/10/01 08:46:18;;;;;;;1.27;0.70;;;;;;;12.85;65.45;101496.03;5065366;28;20222;-80
2021/10/01 08:48:46;;;;;;;1.27;0.70;;;;;;;12.92;64.87;101502.91;5065984;28;20612;-79
2021/10/01 08:51:14;;;;;;;1.07;0.60;;;;;;;12.96;64.19;101535.19;5064599;28;20206;-80
2021/10/01 08:53:43;;;;;;;3.47;1.10;;;;;;;12.99;64.23;101533.41;5065779;28;20227;-80
2021/10/01 08:56:09;;;;;;;2.17;0.50;;;;;;;13.10;63.65;101522.78;5066042;28;20219;-80
2021/10/01 08:58:36;;;;;;;3.07;0.90;;;;;;;13.14;62.64;101566.47;5065861;28;20198;-77
2021/10/01 09:01:04;;;;;;;1.47;0.60;;;;;;;13.12;61.04;101623.25;5065672;28;20206;-79
2021/10/01 09:03:31;;;;;;;1.03;0.60;;;;;;;13.19;61.79;101609.22;5067710;28;20202;-80
2021/10/01 09:05:57;;;;;;;1.73;0.60;;;;;;;13.28;62.11;101580.28;5067977;28;20275;-80
2021/10/01 09:08:25;;;;;;;1.23;0.50;;;;;;;13.30;62.44;101548.84;5066606;28;20684;-80
2021/10/01 09:11:05;;;;;;;0.80;0.60;;;;;;;13.36;61.10;101595.06;5057144;28;20297;-79
2021/10/01 09:13:33;;;;;;;0.87;0.50;;;;;;;13.42;61.66;101595.88;5057659;28;20200;-79
2021/10/01 09:16:03;;;;;;;0.70;0.50;;;;;;;13.47;59.82;101654.38;5056445;28;20266;-79
2021/10/01 09:18:31;;;;;;;1.47;0.50;;;;;;;13.59;61.24;101608.78;5055121;28;20463;-79
2021/10/01 09:21:06;;;;;;;2.67;0.80;;;;;;;13.66;62.41;101597.31;5057151;28;20207;-77
2021/10/01 09:23:36;;;;;;;1.90;0.82;;;;;;;13.71;59.54;101652.34;5075151;28;20433;-79
2021/10/01 09:26:09;;;;;;;2.40;0.60;;;;;;;13.84;60.87;101643.44;5077058;28;20270;-79
2021/10/01 09:28:47;;;;;;;1.43;0.60;;;;;;;13.94;61.33;101622.34;5074627;28;20649;-79
2021/10/01 09:31:31;;;;;;;1.03;0.70;;;;;;;14.04;61.85;101574.06;5075624;28;20747;-79
2021/10/01 09:33:57;;;;;;;1.33;0.50;;;;;;;14.02;58.91;101649.34;5072945;28;20211;-80
2021/10/01 09:36:25;;;;;;;1.33;0.60;;;;;;;14.09;58.92;101686.00;5069336;28;20233;-82
2021/10/01 09:38:52;;;;;;;2.10;0.90;;;;;;;14.23;59.34;101666.53;5076641;28;20239;-83
2021/10/01 09:41:25;;;;;;;2.00;0.50;;;;;;;14.21;59.89;101653.44;5075286;28;20208;-82
2021/10/01 09:43:59;;;;;;;1.37;0.60;;;;;;;14.28;60.30;101633.22;5066613;28;20203;-82
2021/10/01 09:46:37;;;;;;;4.40;0.80;;;;;;;14.29;61.23;101627.94;5064123;28;20604;-80
2021/10/01 09:49:04;;;;;;;2.30;0.73;;;;;;;14.36;59.86;101635.72;5067901;28;20719;-80
2021/10/01 09:51:30;;;;;;;5.47;0.87;;;;;;;14.40;59.06;101663.66;5073441;28;20258;-79
2021/10/01 09:53:57;;;;;;;1.97;0.70;;;;;;;14.54;58.89;101672.19;5075195;28;20267;-80
2021/10/01 09:56:27;;;;;;;1.67;0.70;;;;;;;14.62;60.39;101619.56;5076218;28;20253;-80
2021/10/01 09:59:11;;;;;;;1.10;0.40;;;;;;;14.68;58.95;101622.09;5073553;28;20593;-79
2021/10/01 10:01:57;;;;;;;1.17;0.60;;;;;;;14.68;58.61;101661.50;5075395;28;20231;-81
2021/10/01 10:04:24;;;;;;;2.03;0.60;;;;;;;14.69;58.81;101666.75;5073827;28;20206;-78
2021/10/01 10:06:50;;;;;;;2.10;0.70;;;;;;;14.74;59.96;101613.22;5074060;28;20223;-80
2021/10/01 10:09:30;;;;;;;2.17;0.70;;;;;;;14.70;59.95;101633.44;5072684;28;20200;-80
2021/10/01 10:11:58;;;;;;;3.37;0.80;;;;;;;14.73;59.11;101635.13;5073302;28;20234;-80
2021/10/01 10:14:24;;;;;;;0.60;0.60;;;;;;;14.71;59.38;101619.41;5074961;28;20588;-80
2021/10/01 10:16:51;;;;;;;1.00;0.57;;;;;;;14.73;60.88;101588.72;5074882;28;20236;-78
2021/10/01 10:19:21;;;;;;;3.23;0.70;;;;;;;14.79;61.62;101549.19;5074252;28;20211;-80
2021/10/01 10:21:49;;;;;;;2.10;0.80;;;;;;;14.59;58.43;101664.28;5074645;28;20584;-80
2021/10/01 10:24:16;;;;;;;3.07;1.20;;;;;;;14.65;58.71;101643.19;5073834;28;20530;-79
2021/10/01 10:26:42;;;;;;;1.17;0.57;;;;;;;14.63;58.04;101645.81;5068310;28;20248;-78
2021/10/01 10:29:12;;;;;;;2.07;0.77;;;;;;;14.74;58.62;101624.59;5070334;28;20204;-77
2021/10/01 10:31:43;;;;;;;1.67;0.60;;;;;;;14.83;58.47;101598.16;5072616;28;20207;-79
2021/10/01 10:34:18;;;;;;;2.73;0.83;;;;;;;14.87;59.00;101614.75;5074841;28;20682;-79
2021/10/01 10:36:47;;;;;;;2.00;1.27;;;;;;;14.86;58.67;101613.00;5072876;28;20231;-78
2021/10/01 10:39:53;;;;;;;0.73;0.50;;;;;;;14.96;59.20;101592.69;5070982;28;20697;-80
2021/10/01 10:42:31;;;;;;;1.83;0.60;;;;;;;14.98;57.44;101627.69;5075128;28;20197;-80
2021/10/01 10:45:14;;;;;;;3.03;0.70;;;;;;;15.06;58.30;101633.69;5073894;28;20207;-80
2021/10/01 10:47:59;;;;;;;2.07;0.70;;;;;;;14.99;55.31;101713.59;5074294;28;20220;-79
2021/10/01 10:50:40;;;;;;;1.30;0.60;;;;;;;15.05;56.95;101688.03;5073285;28;20230;-81
2021/10/01 10:53:20;;;;;;;1.97;0.80;;;;;;;15.09;54.88;101721.28;5074121;28;20199;-76
2021/10/01 10:55:53;;;;;;;0.93;0.50;;;;;;;15.12;55.02;101748.41;5073316;28;20225;-80
2021/10/01 10:58:42;;;;;;;1.00;0.50;;;;;;;15.15;55.29;101738.72;5074193;28;20227;-80
2021/10/01 11:01:34;;;;;;;1.73;0.87;;;;;;;15.15;54.32;101751.03;5074021;28;20214;-78
2021/10/01 11:04:30;;;;;;;2.00;0.60;;;;;;;15.16;53.44;101774.63;5073421;28;20680;-78
2021/10/01 11:06:57;;;;;;;1.03;0.60;;;;;;;15.19;53.62;101798.28;5063177;28;20306;-79
2021/10/01 11:09:29;;;;;;;1.40;0.33;;;;;;;15.28;54.16;101768.31;5073463;28;20233;-80
2021/10/01 11:11:58;;;;;;;1.90;0.80;;;;;;;15.29;52.89;101799.84;5074224;28;20214;-79
2021/10/01 11:14:25;;;;;;;2.37;0.67;;;;;;;15.33;53.22;101810.34;5074018;28;20202;-80
2021/10/01 11:17:18;;;;;;;1.47;0.60;;;;;;;15.39;53.10;101766.38;5074026;28;20230;-79
2021/10/01 11:19:46;;;;;;;0.57;0.57;;;;;;;15.50;54.61;101726.72;5073006;28;20258;-78
2021/10/01 11:22:26;;;;;;;0.80;0.60;;;;;;;15.52;48.80;101930.19;5070351;28;20197;-78
2021/10/01 11:24:56;;;;;;;1.37;0.60;;;;;;;15.71;50.59;101938.66;5073876;28;20658;-82
2021/10/01 11:27:23;;;;;;;1.47;0.57;;;;;;;16.01;49.98;101896.94;5074841;28;20229;-81
2021/10/01 11:29:49;;;;;;;2.73;0.90;;;;;;;16.48;49.51;101942.59;5075522;28;20235;-82
2021/10/01 11:32:21;;;;;;;3.03;0.40;;;;;;;17.31;47.26;102043.81;5074759;28;20648;-82
2021/10/01 11:34:51;;;;;;;2.17;0.40;;;;;;;18.46;44.31;102156.59;5077144;28;20189;-82
2021/10/01 11:37:22;;;;;;;1.10;0.50;;;;;;;19.55;40.88;102352.41;5076122;28;20251;-83
2021/10/01 11:39:49;;;;;;;1.73;0.57;;;;;;;20.44;39.29;102410.97;5076062;28;20250;-82
2021/10/01 11:42:22;;;;;;;2.40;0.50;;;;;;;21.44;37.62;102425.69;5075989;28;20260;-83
2021/10/01 11:44:48;;;;;;;0.40;0.33;;;;;;;21.86;34.01;102567.88;5076610;28;20263;-83
2021/10/01 11:47:15;;;;;;;1.00;0.50;;;;;;;23.19;34.72;102530.38;5077464;28;20228;-83
2021/10/01 11:49:50;;;;;;;0.97;0.40;;;;;;;23.97;31.19;102587.78;5076913;28;20207;-82
2021/10/01 11:52:17;;;;;;;1.87;0.60;;;;;;;24.49;29.68;102656.78;5077255;28;20205;-83
2021/10/01 11:54:50;;;;;;;1.37;0.60;;;;;;;25.32;29.59;102630.00;5070347;28;20668;-82
2021/10/01 11:57:17;;;;;;;2.33;0.50;;;;;;;26.41;28.09;102609.63;5067520;28;20221;-82
2021/10/01 11:59:53;;;;;;;2.17;0.73;;;;;;;27.26;26.85;102638.25;5071485;28;20219;-82
2021/10/01 12:02:31;;;;;;;1.50;0.50;;;;;;;28.20;24.95;102635.66;5080955;28;20211;-81
2021/10/01 12:05:16;;;;;;;0.53;0.40;;;;;;;28.02;25.58;102592.78;5074553;28;20218;-80
2021/10/01 12:07:46;;;;;;;1.23;0.40;;;;;;;28.25;26.01;102523.44;5079866;28;20629;-81
2021/10/01 12:10:12;;;;;;;2.33;0.70;;;;;;;28.23;25.22;102534.28;5078866;28;20687;-80
2021/10/01 12:12:38;;;;;;;0.67;0.50;;;;;;;26.69;23.11;102606.41;5080825;28;20254;-80
2021/10/01 12:15:05;;;;;;;0.50;0.50;;;;;;;27.73;25.59;102479.09;5079418;28;20242;-81
2021/10/01 12:17:38;;;;;;;0.47;0.47;;;;;;;28.77;22.90;102524.75;5077599;28;20281;-82
2021/10/01 12:20:06;;;;;;;1.07;0.40;;;;;;;28.91;22.38;102557.00;5079998;28;20251;-81
2021/10/01 12:22:34;;;;;;;0.47;0.37;;;;;;;29.08;21.35;102591.75;5080872;28;20217;-81
2021/10/01 12:25:02;;;;;;;0.60;0.57;;;;;;;29.36;21.15;102564.94;5077510;28;20254;-79
2021/10/01 12:27:34;;;;;;;0.80;0.40;;;;;;;30.10;21.05;102542.06;5078368;28;20670;-80
2021/10/01 12:30:01;;;;;;;0.67;0.53;;;;;;;29.19;20.93;102563.34;5078801;28;20240;-82
2021/10/01 12:32:27;;;;;;;0.73;0.50;;;;;;;29.79;22.07;102475.97;5078729;28;20201;-78
2021/10/01 12:34:56;;;;;;;0.50;0.50;;;;;;;29.29;22.96;102420.03;5071239;28;20209;-81
2021/10/01 12:37:27;;;;;;;1.57;0.60;;;;;;;28.18;22.63;102442.34;5069472;28;20234;-79
2021/10/01 12:39:55;;;;;;;0.60;0.43;;;;;;;27.54;23.14;102382.69;5075586;28;20203;-79
2021/10/01 12:42:24;;;;;;;1.73;0.40;;;;;;;27.01;23.68;102366.09;5075578;28;20209;-82
2021/10/01 12:44:59;;;;;;;1.73;0.67;;;;;;;26.58;23.68;102333.72;5079827;28;20215;-81
2021/10/01 12:47:26;;;;;;;1.03;0.50;;;;;;;25.89;24.32;102322.25;5076678;28;20229;-82
2021/10/01 12:49:57;;;;;;;0.80;0.53;;;;;;;26.39;24.39;102272.25;5079613;28;20213;-82
2021/10/01 12:52:26;;;;;;;3.63;0.60;;;;;;;26.20;23.49;102290.31;5078994;28;20210;-81
2021/10/01 12:54:55;;;;;;;1.13;0.57;;;;;;;25.76;24.46;102268.53;5079640;28;20599;-81
2021/10/01 12:57:26;;;;;;;0.90;0.63;;;;;;;25.78;24.16;102268.44;5078003;28;20228;-82
2021/10/01 12:59:54;;;;;;;2.83;0.60;;;;;;;25.90;25.81;102192.00;5077144;28;20246;-83
2021/10/01 13:02:23;;;;;;;1.47;0.50;;;;;;;24.80;26.58;102169.31;5076742;28;20629;-82
2021/10/01 13:04:59;;;;;;;2.33;0.80;;;;;;;24.75;26.53;102111.66;5072636;28;20212;-82